createdAt,value
2018-12-21T00:00:50.598Z,100951.41
2018-12-21T00:03:18.394Z,100958.77
2018-12-21T00:05:46.985Z,100949.83
2018-12-21T00:08:14.597Z,100949.84
2018-12-21T00:10:42.324Z,100954.59
2018-12-21T00:13:09.935Z,100951.20
2018-12-21T00:15:37.714Z,100949.07
2018-12-21T00:18:05.505Z,100942.22
2018-12-21T00:20:33.306Z,100950.36
2018-12-21T00:23:02.018Z,100954.20
2018-12-21T00:25:29.637Z,100948.61
2018-12-21T00:27:57.293Z,100954.15
2018-12-21T00:30:25.803Z,100943.05
2018-12-21T00:32:59.038Z,100948.59
2018-12-21T00:35:33.251Z,100937.89
2018-12-21T00:38:06.508Z,100942.17
2018-12-21T00:40:39.979Z,100935.34
2018-12-21T00:43:20.374Z,100935.37
2018-12-21T00:45:50.894Z,100929.37
2018-12-21T00:48:19.374Z,100937.94
2018-12-21T00:50:47.918Z,100931.55
2018-12-21T00:53:15.590Z,100934.61
2018-12-21T00:55:44.017Z,100938.47
2018-12-21T00:58:11.641Z,100944.09
2018-12-21T01:00:39.962Z,100939.41
2018-12-21T01:03:07.583Z,100939.88
2018-12-21T01:05:36.317Z,100944.66
2018-12-21T01:08:04.925Z,100951.54
2018-12-21T01:10:33.638Z,100951.91
2018-12-21T01:13:02.349Z,100948.12
2018-12-21T01:15:30.948Z,100955.86
2018-12-21T01:17:58.565Z,100954.97
2018-12-21T01:20:27.276Z,100959.25
2018-12-21T01:22:55.067Z,100956.63
2018-12-21T01:25:23.930Z,100951.80
2018-12-21T01:27:52.516Z,100952.16
2018-12-21T01:30:20.959Z,100952.60
2018-12-21T01:32:49.414Z,100949.55
2018-12-21T01:35:18.004Z,100948.61
2018-12-21T01:37:46.587Z,100945.09
2018-12-21T01:40:14.335Z,100945.41
2018-12-21T01:42:42.865Z,100940.23
2018-12-21T01:45:10.656Z,100935.41
2018-12-21T01:47:38.980Z,100928.78
2018-12-21T01:50:07.544Z,100927.41
2018-12-21T01:52:36.016Z,100927.80
2018-12-21T01:55:05.178Z,100925.56
2018-12-21T01:57:33.728Z,100928.98
2018-12-21T02:00:02.464Z,100924.74
2018-12-21T02:02:31.082Z,100928.87
2018-12-21T02:04:59.642Z,100925.89
2018-12-21T02:07:27.349Z,100927.91
2018-12-21T02:09:57.200Z,100921.08
2018-12-21T02:12:25.246Z,100914.70
2018-12-21T02:14:53.866Z,100916.39
2018-12-21T02:17:22.584Z,100911.98
2018-12-21T02:19:51.017Z,100909.85
2018-12-21T02:22:19.577Z,100905.10
2018-12-21T02:24:48.157Z,100904.26
2018-12-21T02:27:16.579Z,100895.16
2018-12-21T02:29:44.234Z,100896.62
2018-12-21T02:32:12.649Z,100896.28
2018-12-21T02:34:41.085Z,100900.29
2018-12-21T02:37:08.860Z,100890.83
2018-12-21T02:39:37.364Z,100898.12
2018-12-21T02:42:05.064Z,100892.96
2018-12-21T02:44:32.739Z,100892.59
2018-12-21T02:47:00.529Z,100891.20
2018-12-21T02:49:28.214Z,100889.06
2018-12-21T02:52:05.325Z,100889.77
2018-12-21T02:54:27.496Z,100886.38
2018-12-21T02:56:55.879Z,100883.77
2018-12-21T02:59:25.140Z,100888.85
2018-12-21T03:01:55.178Z,100891.02
2018-12-21T03:04:22.967Z,100890.21
2018-12-21T03:06:51.470Z,100883.59
2018-12-21T03:09:19.117Z,100876.66
2018-12-21T03:11:46.754Z,100877.55
2018-12-21T03:14:14.378Z,100876.52
2018-12-21T03:16:41.995Z,100879.42
2018-12-21T03:19:09.604Z,100875.55
2018-12-21T03:21:37.270Z,100876.84
2018-12-21T03:24:04.883Z,100877.69
2018-12-21T03:26:32.686Z,100867.45
2018-12-21T03:29:00.479Z,100884.80
2018-12-21T03:31:28.271Z,100873.63
2018-12-21T03:33:56.312Z,100874.76
2018-12-21T03:36:23.932Z,100868.66
2018-12-21T03:38:52.618Z,100875.67
2018-12-21T03:41:20.380Z,100863.33
2018-12-21T03:43:48.101Z,100854.05
2018-12-21T03:46:15.722Z,100854.36
2018-12-21T03:48:43.344Z,100846.04
2018-12-21T03:51:10.960Z,100840.42
2018-12-21T03:53:38.608Z,100842.95
2018-12-21T03:56:06.315Z,100846.78
2018-12-21T03:58:35.015Z,100847.19
2018-12-21T04:01:03.739Z,100842.06
2018-12-21T04:03:32.155Z,100843.58
2018-12-21T04:06:00.681Z,100839.34
2018-12-21T04:08:29.447Z,100829.41
2018-12-21T04:10:57.966Z,100836.27
2018-12-21T04:13:26.147Z,100831.50
2018-12-21T04:15:55.099Z,100833.83
2018-12-21T04:18:22.904Z,100828.31
2018-12-21T04:20:51.447Z,100831.73
2018-12-21T04:23:20.153Z,100826.27
2018-12-21T04:25:48.692Z,100824.97
2018-12-21T04:28:16.305Z,100826.22
2018-12-21T04:30:44.840Z,100828.98
2018-12-21T04:33:13.288Z,100822.48
2018-12-21T04:35:41.788Z,100822.30
2018-12-21T04:38:10.516Z,100821.00
2018-12-21T04:40:39.213Z,100817.44
2018-12-21T04:43:06.929Z,100819.63
2018-12-21T04:45:34.716Z,100817.30
2018-12-21T04:48:02.444Z,100824.30
2018-12-21T04:50:30.058Z,100824.73
2018-12-21T04:52:58.657Z,100825.09
2018-12-21T04:55:26.950Z,100824.45
2018-12-21T04:57:55.855Z,100818.98
2018-12-21T05:00:25.446Z,100815.91
2018-12-21T05:02:53.870Z,100815.33
2018-12-21T05:05:21.563Z,100813.81
2018-12-21T05:07:49.966Z,100814.17
2018-12-21T05:10:17.715Z,100810.44
2018-12-21T05:12:46.166Z,100807.81
2018-12-21T05:15:14.945Z,100813.72
2018-12-21T05:17:43.534Z,100805.57
2018-12-21T05:20:11.995Z,100805.87
2018-12-21T05:22:40.399Z,100802.09
2018-12-21T05:25:08.978Z,100805.52
2018-12-21T05:27:37.715Z,100809.89
2018-12-21T05:30:08.159Z,100802.03
2018-12-21T05:32:35.773Z,100804.52
2018-12-21T05:35:04.542Z,100799.36
2018-12-21T05:37:33.096Z,100797.13
2018-12-21T05:40:01.505Z,100796.58
2018-12-21T05:42:29.300Z,100789.28
2018-12-21T05:44:57.811Z,100788.28
2018-12-21T05:47:26.356Z,100789.67
2018-12-21T05:49:55.025Z,100794.00
2018-12-21T05:52:22.933Z,100789.27
2018-12-21T05:54:51.546Z,100790.92
2018-12-21T05:57:19.249Z,100783.86
2018-12-21T05:59:47.882Z,100780.68
2018-12-21T06:02:15.669Z,100775.38
2018-12-21T06:04:44.152Z,100773.28
2018-12-21T06:07:12.563Z,100759.22
2018-12-21T06:09:40.312Z,100762.23
2018-12-21T06:12:08.948Z,100756.98
2018-12-21T06:14:36.588Z,100747.05
2018-12-21T06:17:05.016Z,100743.06
2018-12-21T06:19:32.822Z,100741.02
2018-12-21T06:22:00.545Z,100731.34
2018-12-21T06:24:29.177Z,100734.68
2018-12-21T06:26:57.701Z,100733.98
2018-12-21T06:29:26.187Z,100731.45
2018-12-21T06:31:53.974Z,100724.45
2018-12-21T06:34:21.827Z,100713.41
2018-12-21T06:36:49.561Z,100709.28
2018-12-21T06:39:17.359Z,100700.59
2018-12-21T06:41:46.077Z,100700.98
2018-12-21T06:44:13.688Z,100704.31
2018-12-21T06:46:41.312Z,100701.73
2018-12-21T06:49:08.926Z,100695.06
2018-12-21T06:51:36.638Z,100691.13
2018-12-21T06:54:04.442Z,100686.57
2018-12-21T06:56:32.285Z,100699.14
2018-12-21T06:59:00.848Z,100693.47
2018-12-21T07:01:29.368Z,100690.50
2018-12-21T07:03:57.306Z,100690.88
2018-12-21T07:06:25.076Z,100685.03
2018-12-21T07:08:53.281Z,100676.39
2018-12-21T07:11:21.184Z,100680.82
2018-12-21T07:13:49.645Z,100674.76
2018-12-21T07:16:17.328Z,100676.64
2018-12-21T07:18:45.842Z,100675.86
2018-12-21T07:21:13.661Z,100677.61
2018-12-21T07:23:42.216Z,100667.48
2018-12-21T07:26:09.943Z,100667.17
2018-12-21T07:28:37.763Z,100666.31
2018-12-21T07:31:05.508Z,100662.73
2018-12-21T07:33:38.205Z,100660.31
2018-12-21T07:36:08.691Z,100664.58
2018-12-21T07:38:37.439Z,100660.91
2018-12-21T07:41:05.869Z,100657.88
2018-12-21T07:43:33.749Z,100656.38
2018-12-21T07:46:02.367Z,100662.61
2018-12-21T07:48:30.787Z,100655.55
2018-12-21T07:50:58.557Z,100656.74
2018-12-21T07:53:26.354Z,100658.53
2018-12-21T07:55:55.059Z,100648.95
2018-12-21T07:58:23.862Z,100651.83
2018-12-21T08:00:56.004Z,100647.79
2018-12-21T08:03:48.546Z,100646.85
2018-12-21T08:06:16.422Z,100644.14
2018-12-21T08:08:44.214Z,100633.31
2018-12-21T08:11:14.946Z,100634.36
2018-12-21T08:13:43.411Z,100623.25
2018-12-21T08:16:11.619Z,100628.66
2018-12-21T08:18:39.359Z,100627.99
2018-12-21T08:21:07.196Z,100630.89
2018-12-21T08:23:34.877Z,100623.83
2018-12-21T08:26:02.664Z,100619.94
2018-12-21T08:28:30.313Z,100619.84
2018-12-21T08:30:58.143Z,100611.75
2018-12-21T08:33:26.866Z,100607.92
2018-12-21T08:35:54.985Z,100604.95
2018-12-21T08:38:22.749Z,100593.09
2018-12-21T08:40:50.463Z,100588.54
2018-12-21T08:43:18.091Z,100585.06
2018-12-21T08:45:45.755Z,100578.41
2018-12-21T08:48:14.457Z,100574.20
2018-12-21T08:50:43.172Z,100575.17
2018-12-21T08:53:10.929Z,100569.53
2018-12-21T08:55:39.522Z,100572.52
2018-12-21T08:58:08.076Z,100569.04
2018-12-21T09:00:36.790Z,100571.36
2018-12-21T09:03:04.993Z,100560.89
2018-12-21T09:05:33.578Z,100560.81
2018-12-21T09:08:01.269Z,100554.50
2018-12-21T09:10:29.263Z,100551.45
2018-12-21T09:12:57.857Z,100542.94
2018-12-21T09:15:26.411Z,100542.08
2018-12-21T09:17:55.174Z,100536.34
2018-12-21T09:20:23.849Z,100540.61
2018-12-21T09:22:52.324Z,100543.92
2018-12-21T09:25:20.493Z,100536.16
2018-12-21T09:27:48.286Z,100522.39
2018-12-21T09:30:16.073Z,100526.10
2018-12-21T09:32:43.747Z,100525.09
2018-12-21T09:35:11.365Z,100517.86
2018-12-21T09:37:39.164Z,100511.27
2018-12-21T09:40:08.694Z,100501.84
2018-12-21T09:42:36.471Z,100495.80
2018-12-21T09:48:10.057Z,100500.41
2018-12-21T09:50:37.876Z,100491.47
2018-12-21T09:53:05.618Z,100486.69
2018-12-21T09:55:33.976Z,100489.98
2018-12-21T09:58:01.679Z,100488.16
2018-12-21T10:00:33.426Z,100480.54
2018-12-21T10:03:01.045Z,100478.16
2018-12-21T10:05:29.667Z,100467.73
2018-12-21T10:07:57.350Z,100455.69
2018-12-21T10:10:25.154Z,100450.44
2018-12-21T10:12:53.896Z,100449.56
2018-12-21T10:15:21.607Z,100442.11
2018-12-21T10:17:49.299Z,100442.25
2018-12-21T10:20:20.001Z,100429.00
2018-12-21T10:22:47.595Z,100424.08
2018-12-21T10:25:16.162Z,100423.53
2018-12-21T10:27:43.786Z,100414.62
2018-12-21T10:30:11.515Z,100403.68
2018-12-21T10:32:39.202Z,100391.06
2018-12-21T10:35:07.755Z,100383.36
2018-12-21T10:37:35.369Z,100378.41
2018-12-21T10:40:03.081Z,100379.34
2018-12-21T10:42:31.532Z,100376.95
2018-12-21T10:45:00.082Z,100373.22
2018-12-21T10:47:27.711Z,100357.70
2018-12-21T10:49:55.997Z,100345.30
2018-12-21T10:52:25.086Z,100340.61
2018-12-21T10:54:52.717Z,100336.39
2018-12-21T10:57:20.333Z,100327.78
2018-12-21T10:59:47.983Z,100329.53
2018-12-21T11:02:15.680Z,100309.61
2018-12-21T11:04:43.488Z,100300.50
2018-12-21T11:07:12.092Z,100302.36
2018-12-21T11:09:39.947Z,100293.01
2018-12-21T11:12:07.776Z,100291.89
2018-12-21T11:14:35.568Z,100284.20
2018-12-21T11:17:04.241Z,100273.06
2018-12-21T11:19:31.960Z,100264.05
2018-12-21T11:21:59.683Z,100260.16
2018-12-21T11:24:35.228Z,100255.73
2018-12-21T11:26:57.038Z,100234.52
2018-12-21T11:29:24.818Z,100234.42
2018-12-21T11:31:53.893Z,100232.00
2018-12-21T11:34:22.329Z,100224.59
2018-12-21T11:36:50.052Z,100222.17
2018-12-21T11:39:18.751Z,100224.44
2018-12-21T11:41:46.407Z,100216.83
2018-12-21T11:44:14.028Z,100200.27
2018-12-21T11:46:41.818Z,100186.20
2018-12-21T11:49:09.488Z,100182.00
2018-12-21T11:51:38.057Z,100175.14
2018-12-21T11:54:06.719Z,100169.61
2018-12-21T11:56:34.337Z,100169.32
2018-12-21T11:59:03.017Z,100167.96
2018-12-21T12:01:30.624Z,100171.06
2018-12-21T12:03:58.256Z,100156.26
2018-12-21T12:06:26.526Z,100151.44
2018-12-21T12:08:54.958Z,100152.12
2018-12-21T12:11:23.838Z,100142.09
2018-12-21T12:13:51.478Z,100137.92
2018-12-21T12:16:20.035Z,100126.19
2018-12-21T12:18:47.680Z,100110.99
2018-12-21T12:21:15.489Z,100102.63
2018-12-21T12:23:43.098Z,100108.31
2018-12-21T12:40:33.895Z,100076.20
2018-12-21T12:43:02.365Z,100074.69
2018-12-21T12:45:29.989Z,100063.66
2018-12-21T12:50:35.375Z,100054.78
2018-12-21T12:53:03.018Z,100048.31
2018-12-21T12:55:30.615Z,100045.20
2018-12-21T12:57:58.235Z,100036.32
2018-12-21T13:00:27.612Z,100035.09
2018-12-21T13:02:56.052Z,100034.61
2018-12-21T13:05:24.123Z,100016.16
2018-12-21T13:07:51.741Z,100017.83
2018-12-21T13:10:19.366Z,100001.09
2018-12-21T13:12:46.997Z,100003.13
2018-12-21T13:15:14.610Z,100007.50
2018-12-21T13:17:43.296Z,99995.56
2018-12-21T13:20:11.068Z,99987.98
2018-12-21T13:22:39.601Z,99978.55
2018-12-21T13:25:11.516Z,99978.61
2018-12-21T13:27:37.096Z,99975.12
2018-12-21T13:30:07.392Z,99970.02
2018-12-21T13:32:46.169Z,99966.17
2018-12-21T13:35:14.765Z,99951.84
2018-12-21T13:37:42.429Z,99951.67
2018-12-21T13:40:10.286Z,99938.30
2018-12-21T13:42:38.670Z,99926.05
2018-12-21T13:45:08.378Z,99917.40
2018-12-21T13:47:36.039Z,99905.34
2018-12-21T13:50:04.276Z,99900.63
2018-12-21T13:52:31.888Z,99891.53
2018-12-21T13:54:59.491Z,99909.52
2018-12-21T13:57:27.114Z,99898.66
2018-12-21T13:59:55.248Z,99902.69
2018-12-21T14:02:23.908Z,99901.77
2018-12-21T14:04:52.390Z,99899.39
2018-12-21T14:07:20.040Z,99893.63
2018-12-21T14:09:47.686Z,99879.73
2018-12-21T14:12:15.336Z,99877.67
2018-12-21T14:14:43.814Z,99871.66
2018-12-21T14:17:11.438Z,99860.62
2018-12-21T14:19:39.044Z,99854.06
2018-12-21T14:22:06.669Z,99841.00
2018-12-21T14:24:34.321Z,99846.59
2018-12-21T14:27:01.920Z,99842.99
2018-12-21T14:29:29.546Z,99841.70
2018-12-21T14:31:57.154Z,99839.95
2018-12-21T14:34:24.808Z,99832.80
2018-12-21T14:36:52.415Z,99823.97
2018-12-21T14:39:20.024Z,99825.19
2018-12-21T14:41:47.722Z,99812.66
2018-12-21T14:44:15.333Z,99806.05
2018-12-21T14:46:43.921Z,99794.81
2018-12-21T14:49:12.052Z,99787.34
2018-12-21T14:51:40.584Z,99785.70
2018-12-21T14:54:08.264Z,99782.63
2018-12-21T14:56:36.831Z,99763.91
2018-12-21T14:59:05.324Z,99747.02
2018-12-21T15:01:32.931Z,99751.27
2018-12-21T15:04:00.541Z,99744.17
2018-12-21T15:06:28.325Z,99747.02
2018-12-21T15:08:56.180Z,99748.03
2018-12-21T15:11:23.849Z,99736.36
2018-12-21T15:13:51.459Z,99735.74
2018-12-21T15:16:19.081Z,99724.32
2018-12-21T15:18:46.696Z,99717.55
2018-12-21T15:21:14.271Z,99705.58
2018-12-21T15:23:41.885Z,99704.36
2018-12-21T15:26:10.417Z,99689.79
2018-12-21T15:28:38.045Z,99683.41
2018-12-21T15:31:05.659Z,99676.67
2018-12-21T15:33:33.282Z,99684.61
2018-12-21T15:36:01.706Z,99665.66
2018-12-21T15:38:29.447Z,99658.59
2018-12-21T15:40:57.120Z,99657.22
2018-12-21T15:43:25.200Z,99646.70
2018-12-21T15:45:52.829Z,99642.48
2018-12-21T15:48:20.506Z,99649.56
2018-12-21T15:50:49.076Z,99642.11
2018-12-21T15:53:16.737Z,99628.31
2018-12-21T15:55:44.344Z,99628.58
2018-12-21T15:58:11.969Z,99619.58
2018-12-21T16:00:39.613Z,99614.80
2018-12-21T16:03:07.232Z,99606.20
2018-12-21T16:05:34.869Z,99611.64
2018-12-21T16:08:02.525Z,99608.30
2018-12-21T16:10:30.139Z,99607.15
2018-12-21T16:12:57.799Z,99599.52
2018-12-21T16:15:26.186Z,99594.66
2018-12-21T16:17:53.806Z,99588.12
2018-12-21T16:20:22.325Z,99586.92
2018-12-21T16:22:50.740Z,99580.80
2018-12-21T16:25:19.172Z,99572.67
2018-12-21T16:27:46.824Z,99570.02
2018-12-21T16:30:14.449Z,99570.66
2018-12-21T16:32:42.119Z,99556.55
2018-12-21T16:35:09.747Z,99559.59
2018-12-21T16:37:38.588Z,99556.70
2018-12-21T16:40:07.705Z,99554.43
2018-12-21T16:42:35.366Z,99545.38
2018-12-21T16:45:03.035Z,99542.34
2018-12-21T16:47:30.696Z,99537.42
2018-12-21T16:49:58.315Z,99521.72
2018-12-21T16:52:26.212Z,99508.42
2018-12-21T16:54:53.981Z,99494.78
2018-12-21T16:57:21.640Z,99492.98
2018-12-21T16:59:49.253Z,99499.03
2018-12-21T17:02:17.846Z,99490.12
2018-12-21T17:04:45.460Z,99484.03
2018-12-21T17:07:14.035Z,99484.19
2018-12-21T17:09:41.647Z,99488.12
2018-12-21T17:12:09.282Z,99489.98
2018-12-21T17:14:36.890Z,99490.33
2018-12-21T17:17:05.113Z,99481.25
2018-12-21T17:19:32.901Z,99479.28
2018-12-21T17:22:00.518Z,99477.06
2018-12-21T17:24:28.141Z,99464.23
2018-12-21T17:26:56.602Z,99471.53
2018-12-21T17:29:24.839Z,99463.56
2018-12-21T17:31:52.470Z,99464.64
2018-12-21T17:34:20.084Z,99455.92
2018-12-21T17:36:47.695Z,99459.43
2018-12-21T17:39:15.320Z,99451.72
2018-12-21T17:41:42.944Z,99437.23
2018-12-21T17:44:10.561Z,99441.73
2018-12-21T17:46:38.221Z,99418.33
2018-12-21T17:49:05.880Z,99437.77
2018-12-21T17:51:33.607Z,99433.84
2018-12-21T17:54:01.222Z,99431.18
2018-12-21T17:56:30.001Z,99425.86
2018-12-21T17:58:58.100Z,99415.30
2018-12-21T18:01:25.813Z,99413.51
2018-12-21T18:03:53.972Z,99409.78
2018-12-21T18:06:21.590Z,99404.23
2018-12-21T18:08:49.209Z,99408.50
2018-12-21T18:11:16.824Z,99406.06
2018-12-21T18:13:45.390Z,99411.16
2018-12-21T18:16:13.013Z,99402.41
2018-12-21T18:18:40.629Z,99416.42
2018-12-21T18:21:08.247Z,99416.32
2018-12-21T18:23:35.988Z,99419.73
2018-12-21T18:26:03.609Z,99424.07
2018-12-21T18:28:32.164Z,99416.77
2018-12-21T18:31:03.648Z,99415.61
2018-12-21T18:33:31.291Z,99416.39
2018-12-21T18:35:58.933Z,99418.52
2018-12-21T18:38:27.381Z,99412.02
2018-12-21T18:40:56.804Z,99402.90
2018-12-21T18:43:26.125Z,99412.97
2018-12-21T18:45:53.751Z,99397.95
2018-12-21T18:48:21.373Z,99396.86
2018-12-21T18:50:49.797Z,99402.56
2018-12-21T18:53:17.428Z,99396.58
2018-12-21T18:55:46.217Z,99392.03
2018-12-21T18:58:13.854Z,99390.19
2018-12-21T19:00:41.486Z,99386.85
2018-12-21T19:03:09.111Z,99395.12
2018-12-21T19:05:36.773Z,99393.36
2018-12-21T19:08:04.402Z,99406.75
2018-12-21T19:10:32.037Z,99399.53
2018-12-21T19:12:59.664Z,99410.16
2018-12-21T19:15:28.082Z,99398.70
2018-12-21T19:17:56.534Z,99402.74
2018-12-21T19:20:24.993Z,99396.47
2018-12-21T19:22:52.619Z,99403.70
2018-12-21T19:25:20.254Z,99394.16
2018-12-21T19:27:48.794Z,99384.89
2018-12-21T19:30:16.515Z,99391.19
2018-12-21T19:32:44.163Z,99392.16
2018-12-21T19:35:12.574Z,99402.06
2018-12-21T19:37:40.237Z,99400.66
2018-12-21T19:40:09.571Z,99389.35
2018-12-21T19:42:38.171Z,99395.09
2018-12-21T19:45:07.830Z,99399.72
2018-12-21T19:47:35.465Z,99392.45
2018-12-21T19:50:04.462Z,99391.98
2018-12-21T19:52:32.095Z,99383.00
2018-12-21T19:55:02.311Z,99384.41
2018-12-21T19:57:29.948Z,99380.37
2018-12-21T19:59:57.607Z,99373.08
2018-12-21T20:02:26.613Z,99369.91
2018-12-21T20:04:55.258Z,99368.61
2018-12-21T20:07:22.883Z,99363.89
2018-12-21T20:09:50.513Z,99358.38
2018-12-21T20:12:18.176Z,99367.92
2018-12-21T20:14:45.809Z,99357.56
2018-12-21T20:17:13.535Z,99363.67
2018-12-21T20:19:41.200Z,99367.11
2018-12-21T20:22:10.372Z,99361.89
2018-12-21T20:24:37.996Z,99372.58
2018-12-21T20:27:13.364Z,99368.05
2018-12-21T20:29:36.787Z,99368.18
2018-12-21T20:32:04.476Z,99370.02
2018-12-21T20:34:32.089Z,99367.64
2018-12-21T20:36:59.710Z,99373.48
2018-12-21T20:39:27.644Z,99376.28
2018-12-21T20:41:56.150Z,99373.59
2018-12-21T20:44:23.962Z,99368.95
2018-12-21T20:46:51.587Z,99377.66
2018-12-21T20:49:19.203Z,99381.95
2018-12-21T20:51:47.756Z,99379.61
2018-12-21T20:54:16.957Z,99379.08
2018-12-21T20:56:46.051Z,99385.38
2018-12-21T20:59:13.797Z,99391.98
2018-12-21T21:01:41.419Z,99388.55
2018-12-21T21:04:09.137Z,99398.02
2018-12-21T21:06:37.576Z,99400.53
2018-12-21T21:09:07.132Z,99405.83
2018-12-21T21:11:35.662Z,99407.29
2018-12-21T21:14:03.361Z,99407.97
2018-12-21T21:16:30.997Z,99409.27
2018-12-21T21:18:59.456Z,99419.11
2018-12-21T21:21:27.203Z,99417.41
2018-12-21T21:23:56.523Z,99417.52
2018-12-21T21:26:24.778Z,99412.78
2018-12-21T21:28:52.387Z,99426.34
2018-12-21T21:31:20.001Z,99425.23
2018-12-21T21:33:47.691Z,99424.67
2018-12-21T21:36:16.309Z,99434.80
2018-12-21T21:38:43.927Z,99439.81
2018-12-21T21:41:11.544Z,99430.52
2018-12-21T21:43:39.162Z,99433.30
2018-12-21T21:46:06.778Z,99433.31
2018-12-21T21:48:34.416Z,99438.88
2018-12-21T21:51:02.988Z,99447.88
2018-12-21T21:53:30.612Z,99450.39
2018-12-21T21:55:58.244Z,99452.17
2018-12-21T21:58:26.221Z,99456.05
2018-12-21T22:00:53.835Z,99461.91
2018-12-21T22:03:21.470Z,99467.12
2018-12-21T22:05:49.097Z,99464.34
2018-12-21T22:08:16.708Z,99476.52
2018-12-21T22:10:44.317Z,99475.38
2018-12-21T22:13:12.871Z,99462.38
2018-12-21T22:15:41.403Z,99482.25
2018-12-21T22:18:09.033Z,99457.91
2018-12-21T22:20:36.677Z,99454.77
2018-12-21T22:23:05.091Z,99453.83
2018-12-21T22:25:32.739Z,99465.44
2018-12-21T22:28:00.342Z,99445.37
2018-12-21T22:30:28.063Z,99465.19
2018-12-21T22:32:56.393Z,99458.67
2018-12-21T22:35:25.029Z,99464.97
2018-12-21T22:37:52.640Z,99468.87
2018-12-21T22:40:21.257Z,99469.52
2018-12-21T22:42:48.862Z,99471.75
2018-12-21T22:45:16.455Z,99465.89
2018-12-21T22:47:44.073Z,99457.35
2018-12-21T22:50:11.758Z,99463.58
2018-12-21T22:52:39.493Z,99461.73
2018-12-21T22:55:07.819Z,99476.48
2018-12-21T22:57:35.520Z,99483.39
2018-12-21T23:00:05.001Z,99478.36
2018-12-21T23:02:33.710Z,99490.73
2018-12-21T23:05:01.397Z,99469.23
2018-12-21T23:07:30.078Z,99503.45
2018-12-21T23:09:57.735Z,99494.27
2018-12-21T23:12:27.208Z,99495.09
2018-12-21T23:14:54.831Z,99494.36
2018-12-21T23:17:23.282Z,99490.25
2018-12-21T23:19:50.906Z,99512.66
2018-12-21T23:22:19.335Z,99501.67
2018-12-21T23:24:46.949Z,99506.34
2018-12-21T23:27:14.631Z,99496.01
2018-12-21T23:29:42.261Z,99513.56
2018-12-21T23:32:09.911Z,99505.96
2018-12-21T23:34:37.520Z,99508.47
2018-12-21T23:37:05.172Z,99514.22
2018-12-21T23:39:32.787Z,99524.62
2018-12-21T23:42:00.404Z,99527.52
2018-12-21T23:44:28.035Z,99526.88
2018-12-21T23:46:56.391Z,99529.84
2018-12-21T23:49:24.817Z,99532.52
2018-12-21T23:51:52.475Z,99540.88
2018-12-21T23:54:20.072Z,99533.00
2018-12-21T23:56:47.659Z,99549.14
2018-12-21T23:59:15.311Z,99532.24
